createdAt,value
2019-02-24T00:00:28.467Z,0.00
2019-02-24T00:01:07.448Z,0.00
2019-02-24T00:02:07.464Z,0.00
2019-02-24T00:03:07.483Z,0.00
2019-02-24T00:04:07.521Z,0.00
2019-02-24T00:05:07.602Z,0.00
2019-02-24T00:06:28.548Z,0.00
2019-02-24T00:07:07.549Z,0.00
2019-02-24T00:08:07.613Z,0.00
2019-02-24T00:09:07.581Z,0.00
2019-02-24T00:10:07.603Z,0.00
2019-02-24T00:11:07.601Z,0.00
2019-02-24T00:12:28.634Z,0.00
2019-02-24T00:13:07.645Z,0.00
2019-02-24T00:14:07.646Z,0.00
2019-02-24T00:15:07.709Z,0.00
2019-02-24T00:16:07.663Z,0.00
2019-02-24T00:17:07.683Z,0.00
2019-02-24T00:18:28.725Z,0.00
2019-02-24T00:19:07.738Z,0.00
2019-02-24T00:20:07.823Z,0.00
2019-02-24T00:21:07.769Z,0.00
2019-02-24T00:22:07.764Z,0.00
2019-02-24T00:23:07.775Z,0.00
2019-02-24T00:24:28.858Z,0.00
2019-02-24T00:25:07.799Z,0.00
2019-02-24T00:26:07.825Z,0.00
2019-02-24T00:27:07.828Z,0.00
2019-02-24T00:28:07.860Z,0.00
2019-02-24T00:29:07.856Z,0.00
2019-02-24T00:30:28.909Z,0.00
2019-02-24T00:31:07.907Z,0.00
2019-02-24T00:32:07.906Z,0.00
2019-02-24T00:33:07.919Z,0.00
2019-02-24T00:34:07.935Z,0.00
2019-02-24T00:35:07.960Z,0.00
2019-02-24T00:36:28.973Z,0.00
2019-02-24T00:37:07.991Z,0.00
2019-02-24T00:38:07.993Z,0.00
2019-02-24T00:39:08.014Z,0.00
2019-02-24T00:40:08.775Z,0.00
2019-02-24T00:41:08.029Z,0.00
2019-02-24T00:42:29.088Z,0.00
2019-02-24T00:43:08.080Z,0.00
2019-02-24T00:44:08.089Z,0.00
2019-02-24T00:45:08.097Z,0.00
2019-02-24T00:46:08.134Z,0.00
2019-02-24T00:47:08.135Z,0.00
2019-02-24T00:48:29.155Z,0.00
2019-02-24T00:49:08.173Z,0.00
2019-02-24T00:50:08.293Z,0.00
2019-02-24T00:51:08.196Z,0.00
2019-02-24T00:52:08.187Z,0.00
2019-02-24T00:53:08.228Z,0.00
2019-02-24T00:54:29.283Z,0.00
2019-02-24T00:56:50.168Z,0.00
2019-02-24T00:57:50.201Z,0.00
2019-02-24T00:58:50.184Z,0.00
2019-02-24T00:59:50.201Z,0.00
2019-02-24T01:01:11.255Z,0.00
2019-02-24T01:01:50.226Z,0.00
2019-02-24T01:02:50.263Z,0.00
2019-02-24T01:03:50.270Z,0.00
2019-02-24T01:04:50.269Z,0.00
2019-02-24T01:05:50.294Z,0.00
2019-02-24T01:07:11.316Z,0.00
2019-02-24T01:07:50.314Z,0.00
2019-02-24T01:08:50.337Z,0.00
2019-02-24T01:25:24.878Z,0.00
2019-02-24T01:26:24.879Z,0.00
2019-02-24T01:27:45.922Z,0.00
2019-02-24T01:28:25.560Z,0.00
2019-02-24T01:29:24.915Z,0.00
2019-02-24T01:30:24.932Z,0.00
2019-02-24T01:31:25.007Z,0.00
2019-02-24T01:32:24.968Z,0.00
2019-02-24T01:33:45.994Z,0.00
2019-02-24T01:34:24.995Z,0.00
2019-02-24T01:35:25.015Z,0.00
2019-02-24T01:36:25.116Z,0.00
2019-02-24T01:37:25.050Z,0.00
2019-02-24T01:38:25.061Z,0.00
2019-02-24T01:39:46.060Z,0.00
2019-02-24T01:40:25.076Z,0.00
2019-02-24T01:41:25.080Z,0.00
2019-02-24T01:42:25.092Z,0.00
2019-02-24T01:43:25.165Z,0.00
2019-02-24T01:44:25.136Z,0.00
2019-02-24T01:45:46.162Z,0.00
2019-02-24T01:46:25.203Z,0.00
2019-02-24T01:47:25.168Z,0.00
2019-02-24T01:48:25.189Z,0.00
2019-02-24T01:49:25.259Z,0.00
2019-02-24T01:50:25.215Z,0.00
2019-02-24T01:51:46.235Z,0.00
2019-02-24T01:52:25.242Z,0.00
2019-02-24T01:53:25.260Z,0.00
2019-02-24T01:54:25.349Z,0.00
2019-02-24T01:55:25.286Z,0.00
2019-02-24T01:56:25.326Z,0.00
2019-02-24T01:57:46.338Z,0.00
2019-02-24T01:58:25.332Z,0.00
2019-02-24T01:59:25.346Z,0.00
2019-02-24T02:00:25.347Z,0.00
2019-02-24T02:01:25.366Z,0.00
2019-02-24T02:02:25.386Z,0.00
2019-02-24T02:03:46.408Z,0.00
2019-02-24T02:04:25.431Z,0.00
2019-02-24T02:05:25.447Z,0.00
2019-02-24T02:06:25.697Z,0.00
2019-02-24T02:07:25.458Z,0.00
2019-02-24T02:08:25.474Z,0.00
2019-02-24T02:11:28.711Z,0.00
2019-02-24T02:12:28.727Z,0.00
2019-02-24T02:13:28.743Z,0.00
2019-02-24T02:14:28.743Z,0.00
2019-02-24T02:40:18.709Z,0.00
2019-02-24T02:40:57.723Z,0.00
2019-02-24T02:41:57.747Z,0.00
2019-02-24T02:42:57.729Z,0.00
2019-02-24T02:43:57.753Z,0.00
2019-02-24T02:44:57.783Z,0.00
2019-02-24T02:46:18.799Z,0.00
2019-02-24T02:46:57.790Z,0.00
2019-02-24T02:47:57.940Z,0.00
2019-02-24T02:48:57.816Z,0.00
2019-02-24T02:49:57.871Z,0.00
2019-02-24T02:50:57.860Z,0.00
2019-02-24T02:52:18.973Z,0.00
2019-02-24T02:52:57.871Z,0.00
2019-02-24T02:53:57.894Z,0.00
2019-02-24T02:54:57.906Z,0.00
2019-02-24T02:55:57.926Z,0.00
2019-02-24T02:56:57.934Z,0.00
2019-02-24T02:58:18.964Z,0.00
2019-02-24T02:58:57.962Z,0.00
2019-02-24T02:59:57.985Z,0.00
2019-02-24T03:00:58.026Z,0.00
2019-02-24T03:01:58.004Z,0.00
2019-02-24T03:02:58.034Z,0.00
2019-02-24T03:04:19.040Z,0.00
2019-02-24T03:04:58.039Z,0.00
2019-02-24T03:05:58.056Z,0.00
2019-02-24T03:06:58.060Z,0.00
2019-02-24T03:07:58.074Z,0.00
2019-02-24T03:08:58.096Z,0.00
2019-02-24T03:10:19.122Z,0.00
2019-02-24T03:10:58.185Z,0.00
2019-02-24T03:11:58.125Z,0.00
2019-02-24T03:12:58.141Z,0.00
2019-02-24T03:13:58.179Z,0.00
2019-02-24T03:14:58.181Z,0.00
2019-02-24T03:16:19.194Z,0.00
2019-02-24T03:16:58.191Z,0.00
2019-02-24T03:17:58.225Z,0.00
2019-02-24T03:18:58.228Z,0.00
2019-02-24T03:19:58.238Z,0.00
2019-02-24T03:23:01.263Z,0.00
2019-02-24T03:23:40.255Z,0.00
2019-02-24T03:24:40.277Z,0.00
2019-02-24T03:25:40.282Z,0.00
2019-02-24T03:26:40.298Z,0.00
2019-02-24T03:27:40.297Z,0.00
2019-02-24T03:29:04.120Z,0.00
2019-02-24T03:29:40.351Z,0.00
2019-02-24T03:30:40.362Z,0.00
2019-02-24T03:33:22.743Z,0.00
2019-02-24T03:34:22.749Z,0.00
2019-02-24T03:35:43.794Z,0.00
2019-02-24T03:36:22.795Z,0.00
2019-02-24T03:37:22.800Z,0.00
2019-02-24T03:38:22.799Z,0.00
2019-02-24T03:39:22.822Z,0.00
2019-02-24T03:40:22.833Z,0.00
2019-02-24T03:41:43.871Z,0.00
2019-02-24T03:42:22.855Z,0.00
2019-02-24T03:43:22.880Z,0.00
2019-02-24T03:44:22.887Z,0.00
2019-02-24T03:45:22.907Z,0.00
2019-02-24T03:46:23.053Z,0.00
2019-02-24T03:47:43.929Z,0.00
2019-02-24T03:48:22.932Z,0.00
2019-02-24T03:49:22.950Z,0.00
2019-02-24T03:50:22.960Z,0.00
2019-02-24T03:51:22.983Z,0.00
2019-02-24T03:52:23.002Z,0.00
2019-02-24T03:53:44.018Z,0.00
2019-02-24T03:54:23.005Z,0.00
2019-02-24T03:55:23.039Z,0.00
2019-02-24T03:56:23.054Z,0.00
2019-02-24T03:57:23.052Z,0.00
2019-02-24T03:58:23.077Z,0.00
2019-02-24T03:59:44.096Z,0.00
2019-02-24T04:00:23.089Z,0.00
2019-02-24T04:01:23.111Z,0.00
2019-02-24T04:02:23.113Z,0.00
2019-02-24T04:03:23.163Z,0.00
2019-02-24T04:04:23.149Z,0.00
2019-02-24T04:05:44.172Z,0.00
2019-02-24T04:06:23.163Z,0.00
2019-02-24T04:07:23.252Z,0.00
2019-02-24T04:08:23.204Z,0.00
2019-02-24T04:09:23.204Z,0.00
2019-02-24T04:10:23.223Z,0.00
2019-02-24T04:11:44.244Z,0.00
2019-02-24T04:12:23.244Z,0.00
2019-02-24T04:13:23.270Z,0.00
2019-02-24T04:14:23.263Z,0.00
2019-02-24T04:15:23.274Z,0.00
2019-02-24T04:16:23.284Z,0.00
2019-02-24T04:17:44.330Z,0.00
2019-02-24T04:18:23.315Z,0.00
2019-02-24T04:19:23.343Z,0.00
2019-02-24T04:20:23.353Z,0.00
2019-02-24T04:21:23.369Z,0.00
2019-02-24T04:22:23.366Z,0.00
2019-02-24T04:23:44.399Z,0.00
2019-02-24T04:24:23.400Z,0.00
2019-02-24T04:25:23.416Z,0.00
2019-02-24T04:26:23.430Z,0.00
2019-02-24T04:27:23.441Z,0.00
2019-02-24T04:28:23.617Z,0.00
2019-02-24T04:29:44.540Z,0.00
2019-02-24T04:30:23.463Z,0.00
2019-02-24T04:31:23.485Z,0.00
2019-02-24T04:32:23.491Z,0.00
2019-02-24T04:33:23.511Z,0.00
2019-02-24T04:34:23.622Z,0.00
2019-02-24T04:35:44.558Z,0.00
2019-02-24T04:36:23.537Z,0.00
2019-02-24T04:37:23.556Z,0.00
2019-02-24T04:38:23.561Z,0.00
2019-02-24T04:39:23.592Z,0.00
2019-02-24T04:40:23.600Z,0.00
2019-02-24T04:41:44.622Z,0.00
2019-02-24T04:42:23.623Z,0.00
2019-02-24T04:43:23.633Z,0.00
2019-02-24T04:44:23.701Z,0.00
2019-02-24T04:45:23.650Z,0.00
2019-02-24T04:46:23.675Z,0.00
2019-02-24T04:47:44.696Z,0.00
2019-02-24T04:48:23.705Z,0.00
2019-02-24T04:49:23.712Z,0.00
2019-02-24T04:50:23.750Z,0.00
2019-02-24T04:51:23.729Z,0.00
2019-02-24T04:52:23.746Z,0.00
2019-02-24T04:53:44.777Z,0.00
2019-02-24T04:54:23.772Z,0.00
2019-02-24T04:55:23.774Z,0.00
2019-02-24T04:56:23.809Z,0.00
2019-02-24T04:57:23.810Z,0.00
2019-02-24T04:58:23.826Z,0.00
2019-02-24T04:59:44.840Z,0.00
2019-02-24T05:00:23.853Z,0.00
2019-02-24T05:01:23.851Z,0.00
2019-02-24T05:02:23.865Z,0.00
2019-02-24T05:03:23.885Z,0.00
2019-02-24T05:04:23.890Z,0.00
2019-02-24T05:05:44.927Z,0.00
2019-02-24T05:06:23.939Z,0.00
2019-02-24T05:07:23.930Z,0.00
2019-02-24T05:08:23.943Z,0.00
2019-02-24T05:09:23.989Z,0.00
2019-02-24T05:10:23.980Z,0.00
2019-02-24T05:11:45.003Z,0.00
2019-02-24T05:12:23.992Z,0.00
2019-02-24T05:13:24.026Z,0.00
2019-02-24T05:14:24.021Z,0.00
2019-02-24T05:15:24.067Z,0.00
2019-02-24T05:16:24.053Z,0.00
2019-02-24T05:17:45.070Z,0.00
2019-02-24T05:18:24.076Z,0.00
2019-02-24T05:19:24.190Z,0.00
2019-02-24T05:20:24.141Z,0.00
2019-02-24T05:21:24.118Z,0.00
2019-02-24T05:22:24.123Z,0.00
2019-02-24T05:23:45.148Z,0.00
2019-02-24T05:24:24.145Z,0.00
2019-02-24T05:25:24.172Z,0.00
2019-02-24T05:26:24.171Z,0.00
2019-02-24T05:27:24.196Z,0.00
2019-02-24T05:28:24.194Z,0.00
2019-02-24T05:29:46.401Z,0.00
2019-02-24T05:30:24.237Z,0.00
2019-02-24T05:31:24.233Z,0.00
2019-02-24T05:32:24.248Z,0.00
2019-02-24T05:33:24.262Z,0.00
2019-02-24T05:34:24.277Z,0.00
2019-02-24T05:35:45.384Z,0.00
2019-02-24T05:36:24.316Z,0.00
2019-02-24T05:37:24.345Z,0.00
2019-02-24T05:38:24.338Z,0.00
2019-02-24T05:39:24.395Z,0.00
2019-02-24T05:40:24.355Z,0.00
2019-02-24T05:41:45.374Z,0.00
2019-02-24T05:42:24.387Z,0.00
2019-02-24T05:43:24.403Z,0.00
2019-02-24T05:44:24.410Z,0.00
2019-02-24T05:45:24.417Z,0.00
2019-02-24T05:46:24.428Z,0.00
2019-02-24T05:47:45.451Z,0.00
2019-02-24T05:48:24.449Z,0.00
2019-02-24T05:49:24.470Z,0.00
2019-02-24T05:50:24.480Z,0.00
2019-02-24T05:51:24.598Z,0.00
2019-02-24T05:52:24.505Z,0.00
2019-02-24T05:53:45.533Z,0.00
2019-02-24T05:54:24.581Z,0.00
2019-02-24T05:55:24.546Z,0.00
2019-02-24T05:56:24.554Z,0.00
2019-02-24T05:57:24.577Z,0.00
2019-02-24T05:58:24.587Z,0.00
2019-02-24T05:59:54.725Z,0.00
2019-02-24T06:00:24.624Z,0.00
2019-02-24T06:01:24.639Z,4.00
2019-02-24T06:02:24.667Z,0.00
2019-02-24T06:03:24.646Z,0.00
2019-02-24T06:04:24.743Z,4.00
2019-02-24T06:05:45.701Z,0.00
2019-02-24T06:06:24.721Z,4.00
2019-02-24T06:07:24.691Z,4.00
2019-02-24T06:08:24.717Z,4.00
2019-02-24T06:09:24.715Z,4.00
2019-02-24T06:10:24.742Z,4.00
2019-02-24T06:11:45.772Z,8.00
2019-02-24T06:12:24.767Z,8.00
2019-02-24T06:13:24.800Z,12.00
2019-02-24T06:14:24.799Z,12.00
2019-02-24T06:15:24.820Z,12.00
2019-02-24T06:16:24.851Z,12.00
2019-02-24T06:17:45.832Z,12.00
2019-02-24T06:18:24.833Z,16.00
2019-02-24T06:19:24.867Z,20.00
2019-02-24T06:20:24.866Z,20.00
2019-02-24T06:21:24.863Z,20.00
2019-02-24T06:22:24.887Z,20.00
2019-02-24T06:23:45.915Z,24.00
2019-02-24T06:24:25.021Z,28.00
2019-02-24T06:25:24.920Z,28.00
2019-02-24T06:26:24.929Z,32.00
2019-02-24T06:27:24.977Z,32.00
2019-02-24T06:28:24.963Z,36.00
2019-02-24T06:29:46.007Z,36.00
2019-02-24T06:30:24.992Z,40.00
2019-02-24T06:31:24.997Z,40.00
2019-02-24T06:32:25.037Z,44.00
2019-02-24T06:33:25.029Z,44.00
2019-02-24T06:34:25.077Z,48.00
2019-02-24T06:35:46.056Z,48.00
2019-02-24T06:36:25.057Z,56.00
2019-02-24T06:37:25.076Z,56.00
2019-02-24T06:38:25.077Z,60.00
2019-02-24T06:39:25.101Z,56.00
2019-02-24T06:40:25.113Z,60.00
2019-02-24T06:41:46.133Z,64.00
2019-02-24T06:42:25.148Z,68.00
2019-02-24T06:43:25.168Z,68.00
2019-02-24T06:44:25.161Z,72.00
2019-02-24T06:45:25.170Z,76.00
2019-02-24T06:46:25.177Z,76.00
2019-02-24T06:47:46.207Z,80.00
2019-02-24T06:48:25.210Z,84.00
2019-02-24T06:49:25.332Z,84.00
2019-02-24T06:50:34.878Z,88.00
2019-02-24T06:51:25.248Z,88.00
2019-02-24T06:52:25.255Z,92.00
2019-02-24T06:53:46.285Z,96.00
2019-02-24T06:54:25.305Z,96.00
2019-02-24T06:55:25.308Z,96.00
2019-02-24T06:56:25.300Z,100.00
2019-02-24T06:57:25.321Z,104.00
2019-02-24T06:58:25.333Z,104.00
2019-02-24T06:59:46.357Z,108.00
2019-02-24T07:00:25.356Z,112.00
2019-02-24T07:01:25.387Z,116.00
2019-02-24T07:04:07.922Z,120.00
2019-02-24T07:05:07.776Z,124.00
2019-02-24T07:06:28.806Z,128.00
2019-02-24T07:07:07.819Z,128.00
2019-02-24T07:08:07.817Z,132.00
2019-02-24T07:09:07.816Z,136.00
2019-02-24T07:10:07.833Z,136.00
2019-02-24T07:11:07.870Z,140.00
2019-02-24T07:12:28.878Z,144.00
2019-02-24T07:13:07.923Z,144.00
2019-02-24T07:14:07.890Z,148.00
2019-02-24T07:15:07.903Z,152.00
2019-02-24T07:16:07.907Z,156.00
2019-02-24T07:17:07.937Z,160.00
2019-02-24T07:18:29.033Z,164.00
2019-02-24T07:19:07.946Z,164.00
2019-02-24T07:20:07.957Z,164.00
2019-02-24T07:21:07.971Z,168.00
2019-02-24T07:22:07.985Z,172.00
2019-02-24T07:23:08.007Z,172.00
2019-02-24T07:24:29.026Z,180.00
2019-02-24T07:25:08.026Z,192.00
2019-02-24T07:26:08.053Z,200.00
2019-02-24T07:27:08.092Z,212.00
2019-02-24T07:28:08.068Z,228.00
2019-02-24T07:29:08.094Z,244.00
2019-02-24T07:30:29.110Z,272.00
2019-02-24T07:31:08.120Z,440.00
2019-02-24T07:32:08.121Z,848.00
2019-02-24T07:33:08.130Z,960.00
2019-02-24T07:34:08.143Z,836.00
2019-02-24T07:35:08.149Z,632.00
2019-02-24T07:36:29.180Z,540.00
2019-02-24T07:37:12.937Z,568.00
2019-02-24T07:38:08.186Z,576.00
2019-02-24T07:39:08.215Z,672.00
2019-02-24T07:40:08.216Z,796.00
2019-02-24T07:41:08.229Z,824.00
2019-02-24T07:42:29.255Z,736.00
2019-02-24T07:43:08.257Z,588.00
2019-02-24T07:44:08.268Z,488.00
2019-02-24T07:45:08.289Z,456.00
2019-02-24T07:46:08.300Z,456.00
2019-02-24T07:47:08.387Z,480.00
2019-02-24T07:48:29.335Z,508.00
2019-02-24T07:49:08.343Z,556.00
2019-02-24T07:50:08.357Z,616.00
2019-02-24T07:51:08.377Z,700.00
2019-02-24T07:52:08.378Z,720.00
2019-02-24T07:53:08.403Z,628.00
2019-02-24T07:54:29.424Z,552.00
2019-02-24T07:55:08.429Z,572.00
2019-02-24T07:56:08.437Z,644.00
2019-02-24T07:57:08.443Z,812.00
2019-02-24T07:58:08.475Z,1116.00
2019-02-24T07:59:08.497Z,1448.00
2019-02-24T08:00:32.144Z,1752.00
2019-02-24T08:01:08.494Z,2060.00
2019-02-24T08:02:08.640Z,2280.00
2019-02-24T08:03:08.532Z,2240.00
2019-02-24T08:04:08.584Z,2684.00
2019-02-24T08:05:08.567Z,3232.00
2019-02-24T08:06:29.605Z,3284.00
2019-02-24T08:07:08.578Z,4180.00
2019-02-24T08:08:16.184Z,4740.00
2019-02-24T08:09:08.604Z,4704.00
2019-02-24T08:10:08.671Z,4560.00
2019-02-24T08:11:08.639Z,3960.00
2019-02-24T08:12:29.706Z,3540.00
2019-02-24T08:13:08.681Z,3824.00
2019-02-24T08:14:08.690Z,3908.00
2019-02-24T08:15:08.701Z,3752.00
2019-02-24T08:16:08.707Z,3708.00
2019-02-24T08:17:08.733Z,3676.00
2019-02-24T08:18:29.771Z,3540.00
2019-02-24T08:19:08.771Z,3436.00
2019-02-24T08:20:08.777Z,3576.00
2019-02-24T08:21:08.820Z,3780.00
2019-02-24T08:22:08.841Z,3484.00
2019-02-24T08:23:08.835Z,3092.00
2019-02-24T08:24:29.868Z,2708.00
2019-02-24T08:25:08.861Z,2488.00
2019-02-24T08:26:08.886Z,2804.00
2019-02-24T08:27:08.907Z,2928.00
2019-02-24T08:28:08.909Z,2636.00
2019-02-24T08:29:08.927Z,2392.00
2019-02-24T08:30:29.992Z,2276.00
2019-02-24T08:31:08.964Z,2204.00
2019-02-24T08:32:09.054Z,2192.00
2019-02-24T08:33:09.000Z,2188.00
2019-02-24T08:34:09.034Z,2156.00
2019-02-24T08:35:09.027Z,2244.00
2019-02-24T08:36:30.075Z,2468.00
2019-02-24T08:37:09.054Z,2660.00
2019-02-24T08:38:09.090Z,3080.00
2019-02-24T08:39:09.096Z,3412.00
2019-02-24T08:40:09.125Z,3424.00
2019-02-24T08:41:09.117Z,3440.00
2019-02-24T08:42:30.162Z,3148.00
2019-02-24T08:43:09.144Z,2932.00
2019-02-24T08:44:09.170Z,3400.00
2019-02-24T08:45:09.192Z,3524.00
2019-02-24T08:46:09.195Z,3208.00
2019-02-24T08:47:09.231Z,2960.00
2019-02-24T08:48:30.310Z,2936.00
2019-02-24T08:49:09.291Z,3064.00
2019-02-24T08:50:09.261Z,2948.00
2019-02-24T08:51:09.299Z,2928.00
2019-02-24T08:52:09.312Z,2948.00
2019-02-24T08:53:09.319Z,3256.00
2019-02-24T08:54:30.348Z,3464.00
2019-02-24T08:55:09.358Z,3524.00
2019-02-24T08:56:09.407Z,3564.00
2019-02-24T08:57:09.385Z,3624.00
2019-02-24T08:58:09.407Z,3568.00
2019-02-24T08:59:09.445Z,3492.00
2019-02-24T09:00:30.457Z,3476.00
2019-02-24T09:01:09.510Z,3500.00
2019-02-24T09:02:09.468Z,3584.00
2019-02-24T09:03:09.483Z,3820.00
2019-02-24T09:04:09.519Z,3948.00
2019-02-24T09:05:09.541Z,4100.00
2019-02-24T09:06:30.572Z,4116.00
2019-02-24T09:07:09.557Z,4164.00
2019-02-24T09:08:09.591Z,4256.00
2019-02-24T09:09:09.585Z,4280.00
2019-02-24T09:10:09.608Z,4352.00
2019-02-24T09:11:09.615Z,4432.00
2019-02-24T09:12:30.692Z,4528.00
2019-02-24T09:13:09.676Z,4548.00
2019-02-24T09:14:09.727Z,4412.00
2019-02-24T09:15:09.687Z,4364.00
2019-02-24T09:16:09.716Z,4252.00
2019-02-24T09:17:09.729Z,4160.00
2019-02-24T09:18:30.759Z,4036.00
2019-02-24T09:19:09.752Z,3884.00
2019-02-24T09:20:09.767Z,3832.00
2019-02-24T09:21:09.792Z,3824.00
2019-02-24T09:22:09.826Z,3876.00
2019-02-24T09:23:09.845Z,3972.00
2019-02-24T09:24:30.858Z,4028.00
2019-02-24T09:25:09.877Z,3984.00
2019-02-24T09:26:09.893Z,3824.00
2019-02-24T09:27:09.929Z,3824.00
2019-02-24T09:28:09.946Z,3976.00
2019-02-24T09:29:09.953Z,4080.00
2019-02-24T09:30:31.052Z,3836.00
2019-02-24T09:31:09.979Z,3596.00
2019-02-24T09:32:09.996Z,3544.00
2019-02-24T09:33:10.004Z,3504.00
2019-02-24T09:34:10.049Z,3424.00
2019-02-24T09:35:10.056Z,3212.00
2019-02-24T09:36:31.082Z,3080.00
2019-02-24T09:37:10.095Z,3040.00
2019-02-24T09:38:10.098Z,2896.00
2019-02-24T09:39:10.121Z,2712.00
2019-02-24T09:40:10.154Z,2604.00
2019-02-24T09:41:10.192Z,2740.00
2019-02-24T09:42:31.199Z,2732.00
2019-02-24T09:43:10.191Z,2864.00
2019-02-24T09:44:10.255Z,3068.00
2019-02-24T09:45:10.236Z,3368.00
2019-02-24T09:46:10.330Z,3920.00
2019-02-24T09:47:10.254Z,4308.00
2019-02-24T09:48:31.280Z,4332.00
2019-02-24T09:49:10.301Z,3952.00
2019-02-24T09:50:10.360Z,4024.00
2019-02-24T09:51:10.350Z,4492.00
2019-02-24T09:52:10.357Z,4592.00
2019-02-24T09:53:10.368Z,3836.00
2019-02-24T09:54:31.419Z,2780.00
2019-02-24T09:55:10.413Z,2552.00
2019-02-24T09:57:52.808Z,2580.00
2019-02-24T09:58:52.873Z,2808.00
2019-02-24T09:59:52.869Z,3100.00
2019-02-24T10:01:13.881Z,3696.00
2019-02-24T10:01:52.904Z,4312.00
2019-02-24T10:02:52.891Z,5160.00
2019-02-24T10:03:52.943Z,5504.00
2019-02-24T10:04:52.953Z,5748.00
2019-02-24T10:05:52.990Z,5544.00
2019-02-24T10:07:14.019Z,5008.00
2019-02-24T10:07:53.017Z,4340.00
2019-02-24T10:08:52.998Z,4432.00
2019-02-24T10:09:53.015Z,4708.00
2019-02-24T10:10:53.155Z,4796.00
2019-02-24T10:11:53.057Z,4652.00
2019-02-24T10:13:14.094Z,4688.00
2019-02-24T10:13:53.117Z,4736.00
2019-02-24T10:14:53.130Z,4636.00
2019-02-24T10:15:53.127Z,4596.00
2019-02-24T10:16:53.148Z,4328.00
2019-02-24T10:19:56.350Z,4768.00
2019-02-24T10:20:35.342Z,4628.00
2019-02-24T10:21:35.459Z,4652.00
2019-02-24T10:22:35.377Z,4824.00
2019-02-24T10:23:35.417Z,5016.00
2019-02-24T10:24:35.408Z,5408.00
2019-02-24T10:25:56.446Z,5740.00
2019-02-24T10:26:35.449Z,5512.00
2019-02-24T10:27:35.474Z,5216.00
2019-02-24T10:28:35.579Z,5064.00
2019-02-24T10:29:35.493Z,4976.00
2019-02-24T10:30:35.522Z,4916.00
2019-02-24T10:31:56.573Z,4840.00
2019-02-24T10:32:35.551Z,4672.00
2019-02-24T10:33:35.611Z,4616.00
2019-02-24T10:34:35.616Z,4620.00
2019-02-24T10:35:35.612Z,4556.00
2019-02-24T10:36:35.644Z,4724.00
2019-02-24T10:37:56.682Z,4768.00
2019-02-24T10:38:35.766Z,4356.00
2019-02-24T10:39:35.699Z,4140.00
2019-02-24T10:40:35.766Z,4316.00
2019-02-24T10:41:35.754Z,4784.00
2019-02-24T10:42:35.753Z,5092.00
2019-02-24T10:43:56.800Z,5144.00
2019-02-24T10:44:35.827Z,5272.00
2019-02-24T10:45:35.818Z,5808.00
2019-02-24T10:46:35.854Z,5888.00
2019-02-24T10:47:35.859Z,5580.00
2019-02-24T10:48:35.995Z,5564.00
2019-02-24T10:49:56.919Z,5572.00
2019-02-24T10:50:35.943Z,5116.00
2019-02-24T10:51:35.939Z,4608.00
2019-02-24T10:52:35.965Z,4564.00
2019-02-24T10:53:35.981Z,4728.00
2019-02-24T10:54:36.002Z,4792.00
2019-02-24T10:55:57.023Z,4612.00
2019-02-24T10:56:36.035Z,4616.00
2019-02-24T10:57:36.067Z,4624.00
2019-02-24T10:58:36.150Z,4684.00
2019-02-24T10:59:36.100Z,4732.00
2019-02-24T11:00:36.115Z,4904.00
2019-02-24T11:01:57.151Z,5024.00
2019-02-24T11:02:36.166Z,5100.00
2019-02-24T11:03:36.195Z,5152.00
2019-02-24T11:04:36.200Z,5188.00
2019-02-24T11:05:36.214Z,5180.00
2019-02-24T11:06:36.244Z,5124.00
2019-02-24T11:07:57.278Z,5088.00
2019-02-24T11:08:36.268Z,5136.00
2019-02-24T11:09:36.317Z,5208.00
2019-02-24T11:10:36.462Z,5240.00
2019-02-24T11:11:36.338Z,5252.00
2019-02-24T11:12:36.372Z,5212.00
2019-02-24T11:13:57.403Z,5156.00
2019-02-24T11:14:36.395Z,5156.00
2019-02-24T11:15:36.409Z,5200.00
2019-02-24T11:16:36.424Z,5264.00
2019-02-24T11:17:36.484Z,5392.00
2019-02-24T11:18:36.526Z,5524.00
2019-02-24T11:19:57.505Z,5592.00
2019-02-24T11:20:36.608Z,5624.00
2019-02-24T11:21:36.529Z,5704.00
2019-02-24T11:22:36.555Z,5744.00
2019-02-24T11:23:36.572Z,5764.00
2019-02-24T11:24:36.594Z,5844.00
2019-02-24T11:25:57.628Z,5916.00
2019-02-24T11:26:36.664Z,5992.00
2019-02-24T11:27:36.658Z,6084.00
2019-02-24T11:28:36.686Z,6216.00
2019-02-24T11:29:36.702Z,6392.00
2019-02-24T11:30:36.778Z,6552.00
2019-02-24T11:31:58.007Z,6692.00
2019-02-24T11:32:36.767Z,6920.00
2019-02-24T11:33:36.791Z,7188.00
2019-02-24T11:34:36.808Z,7348.00
2019-02-24T11:35:36.820Z,7492.00
2019-02-24T11:36:36.862Z,7636.00
2019-02-24T11:37:57.888Z,7812.00
2019-02-24T11:38:36.887Z,7936.00
2019-02-24T11:39:36.946Z,8044.00
2019-02-24T11:40:37.016Z,8088.00
2019-02-24T11:41:36.958Z,8188.00
2019-02-24T11:42:36.991Z,8248.00
2019-02-24T11:43:58.025Z,8312.00
2019-02-24T11:44:37.048Z,8336.00
2019-02-24T11:45:37.049Z,8328.00
2019-02-24T11:46:37.093Z,8376.00
2019-02-24T11:47:37.186Z,8400.00
2019-02-24T11:48:37.120Z,8340.00
2019-02-24T11:49:58.170Z,8128.00
2019-02-24T11:50:37.176Z,8296.00
2019-02-24T11:51:37.203Z,8448.00
2019-02-24T11:52:37.226Z,8308.00
2019-02-24T11:53:37.271Z,7912.00
2019-02-24T11:54:37.318Z,7396.00
2019-02-24T11:55:58.319Z,7188.00
2019-02-24T11:56:37.336Z,7100.00
2019-02-24T11:57:37.352Z,7436.00
2019-02-24T11:58:37.378Z,7376.00
2019-02-24T11:59:37.511Z,7152.00
2019-02-24T12:00:37.427Z,6732.00
2019-02-24T12:01:58.503Z,6220.00
2019-02-24T12:02:37.491Z,5132.00
2019-02-24T12:03:37.520Z,4388.00
2019-02-24T12:04:37.533Z,3920.00
2019-02-24T12:05:37.568Z,3716.00
2019-02-24T12:06:37.602Z,3712.00
2019-02-24T12:07:58.622Z,3660.00
2019-02-24T12:08:37.629Z,3544.00
2019-02-24T12:09:37.724Z,3456.00
2019-02-24T12:10:37.679Z,3276.00
2019-02-24T12:11:37.714Z,3060.00
2019-02-24T12:12:37.729Z,2884.00
2019-02-24T12:13:58.795Z,2720.00
2019-02-24T12:14:37.780Z,2564.00
2019-02-24T12:15:37.798Z,2420.00
2019-02-24T12:16:37.880Z,2324.00
2019-02-24T12:17:37.854Z,2248.00
2019-02-24T12:18:37.871Z,2184.00
2019-02-24T12:19:58.898Z,2140.00
2019-02-24T12:20:37.907Z,2096.00
2019-02-24T12:21:37.923Z,2016.00
2019-02-24T12:22:37.937Z,1944.00
2019-02-24T12:23:37.967Z,1892.00
2019-02-24T12:24:37.982Z,1888.00
2019-02-24T12:25:59.021Z,1908.00
2019-02-24T12:26:38.107Z,1896.00
2019-02-24T12:27:38.062Z,1880.00
2019-02-24T12:28:38.094Z,1868.00
2019-02-24T12:29:38.108Z,1832.00
2019-02-24T12:30:38.140Z,1788.00
2019-02-24T12:31:59.171Z,1776.00
2019-02-24T12:32:38.180Z,1800.00
2019-02-24T12:33:38.273Z,1808.00
2019-02-24T12:34:38.216Z,1816.00
2019-02-24T12:35:38.229Z,1844.00
2019-02-24T12:36:38.287Z,1836.00
2019-02-24T12:37:59.292Z,1772.00
2019-02-24T12:38:38.294Z,1708.00
2019-02-24T12:39:38.312Z,1668.00
2019-02-24T12:40:38.323Z,1636.00
2019-02-24T12:41:38.357Z,1632.00
2019-02-24T12:42:38.369Z,1652.00
2019-02-24T12:43:59.425Z,1656.00
2019-02-24T12:44:38.415Z,1636.00
2019-02-24T12:45:38.452Z,1624.00
2019-02-24T12:46:38.469Z,1600.00
2019-02-24T12:47:38.489Z,1584.00
2019-02-24T12:48:38.513Z,1584.00
2019-02-24T12:50:03.316Z,1568.00
2019-02-24T12:50:38.556Z,1548.00
2019-02-24T12:51:38.559Z,1568.00
2019-02-24T12:52:38.576Z,1576.00
2019-02-24T12:53:38.600Z,1564.00
2019-02-24T12:54:38.622Z,1552.00
2019-02-24T12:55:59.663Z,1552.00
2019-02-24T12:56:38.678Z,1548.00
2019-02-24T12:57:38.691Z,1528.00
2019-02-24T12:58:38.765Z,1496.00
2019-02-24T12:59:38.719Z,1468.00
2019-02-24T13:00:38.744Z,1452.00
2019-02-24T13:02:05.470Z,1436.00
2019-02-24T13:02:38.809Z,1412.00
2019-02-24T13:03:38.818Z,1328.00
2019-02-24T13:04:38.871Z,1232.00
2019-02-24T13:05:39.008Z,1192.00
2019-02-24T13:06:38.881Z,1164.00
2019-02-24T13:07:59.934Z,1132.00
2019-02-24T13:08:38.912Z,1112.00
2019-02-24T13:09:38.941Z,1112.00
2019-02-24T13:10:38.954Z,1144.00
2019-02-24T13:11:38.986Z,1176.00
2019-02-24T13:12:39.013Z,1188.00
2019-02-24T13:14:00.037Z,1176.00
2019-02-24T13:14:39.039Z,1160.00
2019-02-24T13:15:39.184Z,1152.00
2019-02-24T13:16:39.086Z,1144.00
2019-02-24T13:17:39.103Z,1128.00
2019-02-24T13:18:39.141Z,1112.00
2019-02-24T13:20:00.351Z,1092.00
2019-02-24T13:20:39.159Z,1076.00
2019-02-24T13:21:39.181Z,1060.00
2019-02-24T13:22:39.224Z,1044.00
2019-02-24T13:23:39.230Z,1032.00
2019-02-24T13:24:39.246Z,1028.00
2019-02-24T13:26:00.299Z,1032.00
2019-02-24T13:26:39.305Z,1036.00
2019-02-24T13:27:39.321Z,1028.00
2019-02-24T13:28:50.034Z,1048.00
2019-02-24T13:29:39.348Z,1048.00
2019-02-24T13:30:39.374Z,1020.00
2019-02-24T13:32:00.499Z,1016.00